sensor_id;sensor_type;location;lat;lon;timestamp;P1;durP1;ratioP1;P2;durP2;ratioP2
2408;SDS011;8463;48.094;7.970;2022-12-18T00:01:03;24.83;;;12.65;;
2408;SDS011;8463;48.094;7.970;2022-12-18T00:03:34;20.95;;;13.00;;
2408;SDS011;8463;48.094;7.970;2022-12-18T00:06:01;18.38;;;11.70;;
2408;SDS011;8463;48.094;7.970;2022-12-18T00:08:27;25.30;;;13.95;;
2408;SDS011;8463;48.094;7.970;2022-12-18T00:10:53;23.67;;;12.57;;
2408;SDS011;8463;48.094;7.970;2022-12-18T00:13:19;16.90;;;11.55;;
2408;SDS011;8463;48.094;7.970;2022-12-18T00:15:44;20.67;;;12.20;;
2408;SDS011;8463;48.094;7.970;2022-12-18T00:18:10;24.23;;;12.17;;
2408;SDS011;8463;48.094;7.970;2022-12-18T00:20:36;13.77;;;10.57;;
2408;SDS011;8463;48.094;7.970;2022-12-18T00:23:05;19.00;;;12.38;;
2408;SDS011;8463;48.094;7.970;2022-12-18T00:25:33;15.63;;;11.50;;
2408;SDS011;8463;48.094;7.970;2022-12-18T00:27:59;13.60;;;11.00;;
2408;SDS011;8463;48.094;7.970;2022-12-18T00:30:25;14.30;;;9.68;;
2408;SDS011;8463;48.094;7.970;2022-12-18T00:32:51;17.30;;;10.43;;
2408;SDS011;8463;48.094;7.970;2022-12-18T00:35:16;19.67;;;11.60;;
2408;SDS011;8463;48.094;7.970;2022-12-18T00:37:42;16.60;;;11.30;;
2408;SDS011;8463;48.094;7.970;2022-12-18T00:40:08;12.23;;;8.27;;
2408;SDS011;8463;48.094;7.970;2022-12-18T00:42:37;17.85;;;8.68;;
2408;SDS011;8463;48.094;7.970;2022-12-18T00:45:30;19.48;;;11.75;;
2408;SDS011;8463;48.094;7.970;2022-12-18T00:47:56;12.18;;;8.45;;
2408;SDS011;8463;48.094;7.970;2022-12-18T00:50:23;21.98;;;10.73;;
2408;SDS011;8463;48.094;7.970;2022-12-18T00:52:50;9.70;;;8.43;;
2408;SDS011;8463;48.094;7.970;2022-12-18T00:55:16;15.07;;;9.87;;
2408;SDS011;8463;48.094;7.970;2022-12-18T00:57:42;13.55;;;8.43;;
2408;SDS011;8463;48.094;7.970;2022-12-18T01:00:08;12.57;;;8.23;;
2408;SDS011;8463;48.094;7.970;2022-12-18T01:02:37;16.08;;;9.27;;
2408;SDS011;8463;48.094;7.970;2022-12-18T01:05:03;22.83;;;10.80;;
2408;SDS011;8463;48.094;7.970;2022-12-18T01:07:29;12.75;;;7.97;;
2408;SDS011;8463;48.094;7.970;2022-12-18T01:09:54;11.27;;;8.57;;
2408;SDS011;8463;48.094;7.970;2022-12-18T01:12:20;16.60;;;9.73;;
2408;SDS011;8463;48.094;7.970;2022-12-18T01:14:46;15.23;;;8.03;;
2408;SDS011;8463;48.094;7.970;2022-12-18T01:17:13;14.65;;;8.10;;
2408;SDS011;8463;48.094;7.970;2022-12-18T01:19:39;17.10;;;8.50;;
2408;SDS011;8463;48.094;7.970;2022-12-18T01:22:05;20.30;;;9.87;;
2408;SDS011;8463;48.094;7.970;2022-12-18T01:24:30;14.87;;;7.83;;
2408;SDS011;8463;48.094;7.970;2022-12-18T01:26:57;12.43;;;8.75;;
2408;SDS011;8463;48.094;7.970;2022-12-18T01:29:23;16.30;;;9.63;;
2408;SDS011;8463;48.094;7.970;2022-12-18T01:31:48;11.97;;;10.03;;
2408;SDS011;8463;48.094;7.970;2022-12-18T01:34:14;13.60;;;8.33;;
2408;SDS011;8463;48.094;7.970;2022-12-18T01:36:40;13.40;;;8.50;;
2408;SDS011;8463;48.094;7.970;2022-12-18T01:39:07;14.57;;;9.03;;
2408;SDS011;8463;48.094;7.970;2022-12-18T01:41:37;8.63;;;7.57;;
2408;SDS011;8463;48.094;7.970;2022-12-18T01:50:33;12.45;;;7.38;;
2408;SDS011;8463;48.094;7.970;2022-12-18T01:55:48;14.00;;;8.32;;
2408;SDS011;8463;48.094;7.970;2022-12-18T01:58:19;10.52;;;7.30;;
2408;SDS011;8463;48.094;7.970;2022-12-18T02:00:48;12.57;;;7.88;;
2408;SDS011;8463;48.094;7.970;2022-12-18T02:03:14;8.80;;;7.30;;
2408;SDS011;8463;48.094;7.970;2022-12-18T02:05:52;13.47;;;8.13;;
2408;SDS011;8463;48.094;7.970;2022-12-18T02:08:27;12.20;;;8.27;;
2408;SDS011;8463;48.094;7.970;2022-12-18T02:16:44;11.80;;;6.30;;
2408;SDS011;8463;48.094;7.970;2022-12-18T02:28:11;8.65;;;7.05;;
2408;SDS011;8463;48.094;7.970;2022-12-18T02:30:40;12.18;;;6.30;;
2408;SDS011;8463;48.094;7.970;2022-12-18T02:33:07;13.68;;;8.32;;
2408;SDS011;8463;48.094;7.970;2022-12-18T02:35:35;13.75;;;9.75;;
2408;SDS011;8463;48.094;7.970;2022-12-18T02:38:03;10.00;;;6.82;;
2408;SDS011;8463;48.094;7.970;2022-12-18T02:40:29;8.95;;;6.18;;
2408;SDS011;8463;48.094;7.970;2022-12-18T02:43:01;12.02;;;7.35;;
2408;SDS011;8463;48.094;7.970;2022-12-18T02:45:47;15.73;;;8.75;;
2408;SDS011;8463;48.094;7.970;2022-12-18T02:48:22;10.43;;;7.28;;
2408;SDS011;8463;48.094;7.970;2022-12-18T02:56:36;12.15;;;7.55;;
2408;SDS011;8463;48.094;7.970;2022-12-18T02:59:14;9.77;;;7.03;;
2408;SDS011;8463;48.094;7.970;2022-12-18T03:02:48;8.93;;;7.05;;
2408;SDS011;8463;48.094;7.970;2022-12-18T03:04:55;8.40;;;5.88;;
2408;SDS011;8463;48.094;7.970;2022-12-18T03:07:57;12.60;;;6.72;;
2408;SDS011;8463;48.094;7.970;2022-12-18T03:10:29;12.10;;;8.52;;
2408;SDS011;8463;48.094;7.970;2022-12-18T03:13:04;10.10;;;5.85;;
2408;SDS011;8463;48.094;7.970;2022-12-18T03:15:41;11.35;;;6.88;;
2408;SDS011;8463;48.094;7.970;2022-12-18T03:18:17;10.20;;;7.15;;
2408;SDS011;8463;48.094;7.970;2022-12-18T03:20:50;6.40;;;5.53;;
2408;SDS011;8463;48.094;7.970;2022-12-18T03:23:20;10.10;;;6.15;;
2408;SDS011;8463;48.094;7.970;2022-12-18T03:25:49;6.85;;;6.03;;
2408;SDS011;8463;48.094;7.970;2022-12-18T03:28:20;11.20;;;7.28;;
2408;SDS011;8463;48.094;7.970;2022-12-18T03:30:47;14.30;;;7.30;;
2408;SDS011;8463;48.094;7.970;2022-12-18T03:33:19;8.57;;;6.00;;
2408;SDS011;8463;48.094;7.970;2022-12-18T03:36:00;11.68;;;6.57;;
2408;SDS011;8463;48.094;7.970;2022-12-18T03:38:26;8.93;;;6.00;;
2408;SDS011;8463;48.094;7.970;2022-12-18T03:43:26;8.20;;;5.65;;
2408;SDS011;8463;48.094;7.970;2022-12-18T03:46:03;12.38;;;6.00;;
2408;SDS011;8463;48.094;7.970;2022-12-18T03:48:36;8.82;;;5.40;;
2408;SDS011;8463;48.094;7.970;2022-12-18T03:51:16;9.82;;;6.45;;
2408;SDS011;8463;48.094;7.970;2022-12-18T03:53:55;9.95;;;5.75;;
2408;SDS011;8463;48.094;7.970;2022-12-18T03:56:29;9.85;;;6.63;;
2408;SDS011;8463;48.094;7.970;2022-12-18T03:58:58;8.55;;;6.05;;
2408;SDS011;8463;48.094;7.970;2022-12-18T04:01:31;9.27;;;6.15;;
2408;SDS011;8463;48.094;7.970;2022-12-18T04:04:00;8.27;;;5.70;;
2408;SDS011;8463;48.094;7.970;2022-12-18T04:06:29;7.25;;;5.30;;
2408;SDS011;8463;48.094;7.970;2022-12-18T04:08:57;11.25;;;7.07;;
2408;SDS011;8463;48.094;7.970;2022-12-18T04:11:23;7.20;;;6.20;;
2408;SDS011;8463;48.094;7.970;2022-12-18T04:13:49;10.83;;;5.20;;
2408;SDS011;8463;48.094;7.970;2022-12-18T04:16:14;7.43;;;5.27;;
2408;SDS011;8463;48.094;7.970;2022-12-18T04:18:40;13.23;;;6.90;;
2408;SDS011;8463;48.094;7.970;2022-12-18T04:21:06;10.33;;;7.10;;
2408;SDS011;8463;48.094;7.970;2022-12-18T04:23:31;9.63;;;5.93;;
2408;SDS011;8463;48.094;7.970;2022-12-18T04:25:57;10.90;;;6.43;;
2408;SDS011;8463;48.094;7.970;2022-12-18T04:28:22;8.50;;;5.47;;
2408;SDS011;8463;48.094;7.970;2022-12-18T04:30:48;13.33;;;6.40;;
2408;SDS011;8463;48.094;7.970;2022-12-18T04:33:17;9.98;;;6.70;;
2408;SDS011;8463;48.094;7.970;2022-12-18T04:35:42;8.15;;;6.22;;
2408;SDS011;8463;48.094;7.970;2022-12-18T04:38:09;11.00;;;6.50;;
2408;SDS011;8463;48.094;7.970;2022-12-18T04:40:35;6.72;;;5.85;;
2408;SDS011;8463;48.094;7.970;2022-12-18T04:43:02;9.43;;;5.65;;
2408;SDS011;8463;48.094;7.970;2022-12-18T04:45:27;8.88;;;5.22;;
2408;SDS011;8463;48.094;7.970;2022-12-18T04:47:54;8.00;;;6.93;;
2408;SDS011;8463;48.094;7.970;2022-12-18T04:50:22;7.90;;;6.15;;
2408;SDS011;8463;48.094;7.970;2022-12-18T04:52:48;9.33;;;6.13;;
2408;SDS011;8463;48.094;7.970;2022-12-18T04:55:13;7.93;;;5.80;;
2408;SDS011;8463;48.094;7.970;2022-12-18T04:57:39;11.27;;;6.10;;
2408;SDS011;8463;48.094;7.970;2022-12-18T05:00:05;6.23;;;4.67;;
2408;SDS011;8463;48.094;7.970;2022-12-18T05:02:31;8.68;;;5.88;;
2408;SDS011;8463;48.094;7.970;2022-12-18T05:04:57;7.70;;;5.73;;
2408;SDS011;8463;48.094;7.970;2022-12-18T05:07:22;9.50;;;4.83;;
2408;SDS011;8463;48.094;7.970;2022-12-18T05:09:48;7.07;;;5.43;;
2408;SDS011;8463;48.094;7.970;2022-12-18T05:12:14;5.67;;;4.50;;
2408;SDS011;8463;48.094;7.970;2022-12-18T05:14:39;9.53;;;6.00;;
2408;SDS011;8463;48.094;7.970;2022-12-18T05:17:07;6.10;;;4.75;;
2408;SDS011;8463;48.094;7.970;2022-12-18T05:19:33;6.30;;;4.77;;
2408;SDS011;8463;48.094;7.970;2022-12-18T05:21:58;11.00;;;5.67;;
2408;SDS011;8463;48.094;7.970;2022-12-18T05:24:24;8.37;;;4.90;;
2408;SDS011;8463;48.094;7.970;2022-12-18T05:26:49;7.03;;;4.87;;
2408;SDS011;8463;48.094;7.970;2022-12-18T05:29:15;8.73;;;5.93;;
2408;SDS011;8463;48.094;7.970;2022-12-18T05:31:41;10.50;;;6.63;;
2408;SDS011;8463;48.094;7.970;2022-12-18T05:34:06;7.47;;;5.17;;
2408;SDS011;8463;48.094;7.970;2022-12-18T05:36:32;9.47;;;6.80;;
2408;SDS011;8463;48.094;7.970;2022-12-18T05:38:58;6.43;;;4.67;;
2408;SDS011;8463;48.094;7.970;2022-12-18T05:41:25;8.45;;;5.05;;
2408;SDS011;8463;48.094;7.970;2022-12-18T05:43:51;13.02;;;7.28;;
2408;SDS011;8463;48.094;7.970;2022-12-18T05:46:16;10.70;;;6.70;;
2408;SDS011;8463;48.094;7.970;2022-12-18T05:48:43;6.32;;;4.63;;
2408;SDS011;8463;48.094;7.970;2022-12-18T05:51:11;8.23;;;5.65;;
2408;SDS011;8463;48.094;7.970;2022-12-18T05:53:41;6.03;;;5.15;;
2408;SDS011;8463;48.094;7.970;2022-12-18T05:56:09;10.63;;;6.30;;
2408;SDS011;8463;48.094;7.970;2022-12-18T05:58:36;7.07;;;5.18;;
2408;SDS011;8463;48.094;7.970;2022-12-18T06:01:06;12.87;;;6.20;;
2408;SDS011;8463;48.094;7.970;2022-12-18T06:03:36;6.65;;;4.88;;
2408;SDS011;8463;48.094;7.970;2022-12-18T06:06:02;8.53;;;5.73;;
2408;SDS011;8463;48.094;7.970;2022-12-18T06:08:28;8.10;;;5.37;;
2408;SDS011;8463;48.094;7.970;2022-12-18T06:10:54;6.63;;;5.80;;
2408;SDS011;8463;48.094;7.970;2022-12-18T06:13:20;7.43;;;6.27;;
2408;SDS011;8463;48.094;7.970;2022-12-18T06:15:46;9.43;;;5.93;;
2408;SDS011;8463;48.094;7.970;2022-12-18T06:18:11;9.50;;;6.00;;
2408;SDS011;8463;48.094;7.970;2022-12-18T06:20:37;7.13;;;6.40;;
2408;SDS011;8463;48.094;7.970;2022-12-18T06:23:06;5.72;;;4.97;;
2408;SDS011;8463;48.094;7.970;2022-12-18T06:25:32;14.55;;;6.05;;
2408;SDS011;8463;48.094;7.970;2022-12-18T06:27:58;7.30;;;4.73;;
2408;SDS011;8463;48.094;7.970;2022-12-18T06:30:23;9.60;;;7.63;;
2408;SDS011;8463;48.094;7.970;2022-12-18T06:32:49;9.97;;;5.47;;
2408;SDS011;8463;48.094;7.970;2022-12-18T06:35:15;7.27;;;5.97;;
2408;SDS011;8463;48.094;7.970;2022-12-18T06:37:40;8.83;;;6.37;;
2408;SDS011;8463;48.094;7.970;2022-12-18T06:40:06;12.90;;;7.07;;
2408;SDS011;8463;48.094;7.970;2022-12-18T06:42:32;6.60;;;4.97;;
2408;SDS011;8463;48.094;7.970;2022-12-18T06:44:58;8.43;;;6.27;;
2408;SDS011;8463;48.094;7.970;2022-12-18T06:47:24;10.87;;;5.57;;
2408;SDS011;8463;48.094;7.970;2022-12-18T06:49:49;7.37;;;5.73;;
2408;SDS011;8463;48.094;7.970;2022-12-18T06:52:18;10.67;;;6.83;;
2408;SDS011;8463;48.094;7.970;2022-12-18T06:54:43;7.32;;;4.07;;
2408;SDS011;8463;48.094;7.970;2022-12-18T06:57:09;9.23;;;5.47;;
2408;SDS011;8463;48.094;7.970;2022-12-18T06:59:35;12.37;;;8.33;;
2408;SDS011;8463;48.094;7.970;2022-12-18T07:02:00;16.10;;;9.20;;
2408;SDS011;8463;48.094;7.970;2022-12-18T07:04:29;13.27;;;9.93;;
2408;SDS011;8463;48.094;7.970;2022-12-18T07:06:55;13.60;;;7.47;;
2408;SDS011;8463;48.094;7.970;2022-12-18T07:09:21;11.30;;;7.60;;
2408;SDS011;8463;48.094;7.970;2022-12-18T07:11:46;17.73;;;14.70;;
2408;SDS011;8463;48.094;7.970;2022-12-18T07:14:12;15.97;;;13.90;;
2408;SDS011;8463;48.094;7.970;2022-12-18T07:16:37;13.10;;;8.03;;
2408;SDS011;8463;48.094;7.970;2022-12-18T07:19:03;11.43;;;8.40;;
2408;SDS011;8463;48.094;7.970;2022-12-18T07:21:29;17.63;;;13.43;;
2408;SDS011;8463;48.094;7.970;2022-12-18T07:23:54;12.00;;;10.40;;
2408;SDS011;8463;48.094;7.970;2022-12-18T07:26:20;10.90;;;9.07;;
2408;SDS011;8463;48.094;7.970;2022-12-18T07:28:47;13.55;;;7.50;;
2408;SDS011;8463;48.094;7.970;2022-12-18T07:31:15;12.32;;;8.35;;
2408;SDS011;8463;48.094;7.970;2022-12-18T07:33:42;22.90;;;13.55;;
2408;SDS011;8463;48.094;7.970;2022-12-18T07:36:09;15.50;;;11.70;;
2408;SDS011;8463;48.094;7.970;2022-12-18T07:38:35;12.50;;;8.98;;
2408;SDS011;8463;48.094;7.970;2022-12-18T07:41:05;13.10;;;8.43;;
2408;SDS011;8463;48.094;7.970;2022-12-18T07:43:32;11.32;;;6.85;;
2408;SDS011;8463;48.094;7.970;2022-12-18T07:45:57;8.90;;;6.67;;
2408;SDS011;8463;48.094;7.970;2022-12-18T07:48:24;14.05;;;8.02;;
2408;SDS011;8463;48.094;7.970;2022-12-18T07:50:49;12.97;;;6.90;;
2408;SDS011;8463;48.094;7.970;2022-12-18T07:53:15;10.20;;;7.13;;
2408;SDS011;8463;48.094;7.970;2022-12-18T07:55:41;15.43;;;8.33;;
2408;SDS011;8463;48.094;7.970;2022-12-18T07:58:07;11.63;;;8.35;;
2408;SDS011;8463;48.094;7.970;2022-12-18T08:00:33;10.68;;;7.22;;
2408;SDS011;8463;48.094;7.970;2022-12-18T08:02:59;6.75;;;4.65;;
2408;SDS011;8463;48.094;7.970;2022-12-18T08:05:25;14.30;;;6.40;;
2408;SDS011;8463;48.094;7.970;2022-12-18T08:07:51;12.43;;;8.00;;
2408;SDS011;8463;48.094;7.970;2022-12-18T08:10:17;13.67;;;9.60;;
2408;SDS011;8463;48.094;7.970;2022-12-18T08:12:43;11.02;;;6.85;;
2408;SDS011;8463;48.094;7.970;2022-12-18T08:15:09;9.83;;;7.07;;
2408;SDS011;8463;48.094;7.970;2022-12-18T08:17:35;15.23;;;8.53;;
2408;SDS011;8463;48.094;7.970;2022-12-18T08:20:00;14.00;;;7.50;;
2408;SDS011;8463;48.094;7.970;2022-12-18T08:22:26;13.30;;;9.87;;
2408;SDS011;8463;48.094;7.970;2022-12-18T08:24:51;13.67;;;7.97;;
2408;SDS011;8463;48.094;7.970;2022-12-18T08:27:17;10.87;;;7.10;;
2408;SDS011;8463;48.094;7.970;2022-12-18T08:29:43;12.03;;;7.87;;
2408;SDS011;8463;48.094;7.970;2022-12-18T08:32:10;19.63;;;9.68;;
2408;SDS011;8463;48.094;7.970;2022-12-18T08:34:36;10.70;;;8.23;;
2408;SDS011;8463;48.094;7.970;2022-12-18T08:37:02;15.87;;;8.97;;
2408;SDS011;8463;48.094;7.970;2022-12-18T08:39:27;10.83;;;9.70;;
2408;SDS011;8463;48.094;7.970;2022-12-18T08:41:53;18.47;;;8.33;;
2408;SDS011;8463;48.094;7.970;2022-12-18T08:44:37;15.75;;;9.40;;
2408;SDS011;8463;48.094;7.970;2022-12-18T08:47:02;14.03;;;8.57;;
2408;SDS011;8463;48.094;7.970;2022-12-18T08:49:29;13.32;;;9.07;;
2408;SDS011;8463;48.094;7.970;2022-12-18T08:51:55;15.20;;;9.20;;
2408;SDS011;8463;48.094;7.970;2022-12-18T08:54:24;21.70;;;10.68;;
2408;SDS011;8463;48.094;7.970;2022-12-18T08:56:50;12.45;;;7.07;;
2408;SDS011;8463;48.094;7.970;2022-12-18T08:59:16;8.90;;;7.23;;
2408;SDS011;8463;48.094;7.970;2022-12-18T09:01:42;23.48;;;13.93;;
2408;SDS011;8463;48.094;7.970;2022-12-18T09:04:09;13.13;;;9.23;;
2408;SDS011;8463;48.094;7.970;2022-12-18T09:06:35;15.15;;;8.95;;
2408;SDS011;8463;48.094;7.970;2022-12-18T09:09:01;18.08;;;9.25;;
2408;SDS011;8463;48.094;7.970;2022-12-18T09:11:27;10.35;;;8.20;;
2408;SDS011;8463;48.094;7.970;2022-12-18T09:13:54;14.18;;;8.38;;
2408;SDS011;8463;48.094;7.970;2022-12-18T09:16:20;11.35;;;7.13;;
2408;SDS011;8463;48.094;7.970;2022-12-18T09:18:47;12.48;;;8.40;;
2408;SDS011;8463;48.094;7.970;2022-12-18T09:21:14;11.05;;;7.50;;
2408;SDS011;8463;48.094;7.970;2022-12-18T09:23:42;19.50;;;10.10;;
2408;SDS011;8463;48.094;7.970;2022-12-18T09:26:08;13.95;;;7.50;;
2408;SDS011;8463;48.094;7.970;2022-12-18T09:28:34;13.07;;;7.70;;
2408;SDS011;8463;48.094;7.970;2022-12-18T09:31:03;12.63;;;8.57;;
2408;SDS011;8463;48.094;7.970;2022-12-18T09:33:30;12.82;;;9.45;;
2408;SDS011;8463;48.094;7.970;2022-12-18T09:35:56;14.10;;;10.80;;
2408;SDS011;8463;48.094;7.970;2022-12-18T09:38:22;26.67;;;23.87;;
2408;SDS011;8463;48.094;7.970;2022-12-18T09:40:50;17.17;;;11.75;;
2408;SDS011;8463;48.094;7.970;2022-12-18T09:43:33;10.30;;;7.70;;
2408;SDS011;8463;48.094;7.970;2022-12-18T09:46:03;10.05;;;8.20;;
2408;SDS011;8463;48.094;7.970;2022-12-18T09:48:44;12.63;;;9.75;;
2408;SDS011;8463;48.094;7.970;2022-12-18T09:51:17;14.35;;;10.52;;
2408;SDS011;8463;48.094;7.970;2022-12-18T09:54:07;14.88;;;9.73;;
2408;SDS011;8463;48.094;7.970;2022-12-18T09:56:38;13.43;;;9.38;;
2408;SDS011;8463;48.094;7.970;2022-12-18T09:59:14;15.35;;;9.80;;
2408;SDS011;8463;48.094;7.970;2022-12-18T10:01:42;13.50;;;8.00;;
2408;SDS011;8463;48.094;7.970;2022-12-18T10:04:08;13.30;;;9.40;;
2408;SDS011;8463;48.094;7.970;2022-12-18T10:06:49;14.05;;;8.48;;
2408;SDS011;8463;48.094;7.970;2022-12-18T10:20:02;14.80;;;11.43;;
2408;SDS011;8463;48.094;7.970;2022-12-18T10:27:53;14.85;;;10.25;;
2408;SDS011;8463;48.094;7.970;2022-12-18T10:30:23;12.40;;;9.25;;
2408;SDS011;8463;48.094;7.970;2022-12-18T10:32:50;18.00;;;11.90;;
2408;SDS011;8463;48.094;7.970;2022-12-18T10:35:20;20.92;;;14.80;;
2408;SDS011;8463;48.094;7.970;2022-12-18T10:38:01;16.85;;;10.90;;
2408;SDS011;8463;48.094;7.970;2022-12-18T10:40:50;18.10;;;10.97;;
2408;SDS011;8463;48.094;7.970;2022-12-18T10:43:19;21.47;;;12.90;;
2408;SDS011;8463;48.094;7.970;2022-12-18T10:45:59;16.23;;;9.73;;
2408;SDS011;8463;48.094;7.970;2022-12-18T10:48:27;10.85;;;7.53;;
2408;SDS011;8463;48.094;7.970;2022-12-18T10:50:53;10.43;;;7.50;;
2408;SDS011;8463;48.094;7.970;2022-12-18T10:53:21;15.63;;;8.70;;
2408;SDS011;8463;48.094;7.970;2022-12-18T10:55:50;12.97;;;7.10;;
2408;SDS011;8463;48.094;7.970;2022-12-18T10:58:23;9.47;;;7.00;;
2408;SDS011;8463;48.094;7.970;2022-12-18T11:06:07;10.67;;;7.27;;
2408;SDS011;8463;48.094;7.970;2022-12-18T11:08:41;12.40;;;8.43;;
2408;SDS011;8463;48.094;7.970;2022-12-18T11:11:41;9.37;;;7.03;;
2408;SDS011;8463;48.094;7.970;2022-12-18T11:14:12;9.87;;;6.47;;
2408;SDS011;8463;48.094;7.970;2022-12-18T11:16:44;11.80;;;9.00;;
2408;SDS011;8463;48.094;7.970;2022-12-18T11:21:57;10.80;;;8.13;;
2408;SDS011;8463;48.094;7.970;2022-12-18T11:26:53;11.53;;;7.10;;
2408;SDS011;8463;48.094;7.970;2022-12-18T11:29:23;14.03;;;8.30;;
2408;SDS011;8463;48.094;7.970;2022-12-18T11:32:39;11.23;;;8.07;;
2408;SDS011;8463;48.094;7.970;2022-12-18T11:34:39;12.90;;;9.97;;
2408;SDS011;8463;48.094;7.970;2022-12-18T11:37:09;10.87;;;8.67;;
2408;SDS011;8463;48.094;7.970;2022-12-18T11:39:41;16.07;;;11.50;;
2408;SDS011;8463;48.094;7.970;2022-12-18T11:42:19;9.37;;;6.50;;
2408;SDS011;8463;48.094;7.970;2022-12-18T11:44:50;7.90;;;6.60;;
2408;SDS011;8463;48.094;7.970;2022-12-18T11:47:41;8.93;;;6.50;;
2408;SDS011;8463;48.094;7.970;2022-12-18T11:50:30;11.63;;;7.57;;
2408;SDS011;8463;48.094;7.970;2022-12-18T11:53:09;17.73;;;12.33;;
2408;SDS011;8463;48.094;7.970;2022-12-18T11:58:20;21.58;;;13.63;;
2408;SDS011;8463;48.094;7.970;2022-12-18T12:24:05;17.55;;;12.40;;
2408;SDS011;8463;48.094;7.970;2022-12-18T12:26:44;17.65;;;11.23;;
2408;SDS011;8463;48.094;7.970;2022-12-18T12:40:17;21.33;;;12.57;;
2408;SDS011;8463;48.094;7.970;2022-12-18T12:42:52;21.52;;;15.20;;
2408;SDS011;8463;48.094;7.970;2022-12-18T12:50:56;19.33;;;12.68;;
2408;SDS011;8463;48.094;7.970;2022-12-18T12:53:26;20.75;;;12.60;;
2408;SDS011;8463;48.094;7.970;2022-12-18T12:55:59;24.63;;;15.02;;
2408;SDS011;8463;48.094;7.970;2022-12-18T12:58:28;21.93;;;15.30;;
2408;SDS011;8463;48.094;7.970;2022-12-18T13:01:14;19.30;;;13.93;;
2408;SDS011;8463;48.094;7.970;2022-12-18T13:06:35;23.33;;;14.02;;
2408;SDS011;8463;48.094;7.970;2022-12-18T13:09:04;19.03;;;15.37;;
2408;SDS011;8463;48.094;7.970;2022-12-18T13:11:40;22.80;;;13.60;;
2408;SDS011;8463;48.094;7.970;2022-12-18T13:14:31;21.67;;;11.07;;
2408;SDS011;8463;48.094;7.970;2022-12-18T13:20:18;29.43;;;15.53;;
2408;SDS011;8463;48.094;7.970;2022-12-18T13:22:45;21.73;;;12.57;;
2408;SDS011;8463;48.094;7.970;2022-12-18T13:28:02;17.35;;;9.73;;
2408;SDS011;8463;48.094;7.970;2022-12-18T13:30:42;14.87;;;10.47;;
2408;SDS011;8463;48.094;7.970;2022-12-18T13:35:40;19.17;;;11.40;;
2408;SDS011;8463;48.094;7.970;2022-12-18T13:40:57;16.90;;;11.73;;
2408;SDS011;8463;48.094;7.970;2022-12-18T13:43:42;18.02;;;13.07;;
2408;SDS011;8463;48.094;7.970;2022-12-18T13:48:49;21.50;;;15.57;;
2408;SDS011;8463;48.094;7.970;2022-12-18T13:51:31;25.60;;;15.73;;
2408;SDS011;8463;48.094;7.970;2022-12-18T13:54:00;26.70;;;16.67;;
2408;SDS011;8463;48.094;7.970;2022-12-18T13:56:27;22.58;;;14.77;;
2408;SDS011;8463;48.094;7.970;2022-12-18T13:59:05;26.50;;;15.65;;
2408;SDS011;8463;48.094;7.970;2022-12-18T14:04:19;19.80;;;14.63;;
2408;SDS011;8463;48.094;7.970;2022-12-18T14:06:49;20.02;;;14.40;;
2408;SDS011;8463;48.094;7.970;2022-12-18T14:09:19;16.95;;;14.88;;
2408;SDS011;8463;48.094;7.970;2022-12-18T14:11:51;26.83;;;16.20;;
2408;SDS011;8463;48.094;7.970;2022-12-18T14:14:40;21.08;;;15.77;;
2408;SDS011;8463;48.094;7.970;2022-12-18T14:17:10;33.15;;;17.60;;
2408;SDS011;8463;48.094;7.970;2022-12-18T14:19:37;25.27;;;15.10;;
2408;SDS011;8463;48.094;7.970;2022-12-18T14:22:11;25.38;;;13.90;;
2408;SDS011;8463;48.094;7.970;2022-12-18T14:24:41;28.90;;;15.57;;
2408;SDS011;8463;48.094;7.970;2022-12-18T14:27:21;22.50;;;15.07;;
2408;SDS011;8463;48.094;7.970;2022-12-18T14:29:50;18.95;;;13.80;;
2408;SDS011;8463;48.094;7.970;2022-12-18T14:32:17;28.58;;;15.77;;
2408;SDS011;8463;48.094;7.970;2022-12-18T14:34:51;22.08;;;15.15;;
2408;SDS011;8463;48.094;7.970;2022-12-18T14:37:22;21.30;;;14.35;;
2408;SDS011;8463;48.094;7.970;2022-12-18T14:42:18;26.48;;;15.07;;
2408;SDS011;8463;48.094;7.970;2022-12-18T14:44:44;20.00;;;12.93;;
2408;SDS011;8463;48.094;7.970;2022-12-18T14:47:13;19.17;;;11.70;;
2408;SDS011;8463;48.094;7.970;2022-12-18T14:49:40;22.80;;;14.63;;
2408;SDS011;8463;48.094;7.970;2022-12-18T14:52:17;23.67;;;13.15;;
2408;SDS011;8463;48.094;7.970;2022-12-18T14:54:48;22.63;;;14.43;;
2408;SDS011;8463;48.094;7.970;2022-12-18T14:59:40;27.63;;;17.53;;
2408;SDS011;8463;48.094;7.970;2022-12-18T15:04:59;24.85;;;16.92;;
2408;SDS011;8463;48.094;7.970;2022-12-18T15:07:26;26.60;;;17.52;;
2408;SDS011;8463;48.094;7.970;2022-12-18T15:12:42;24.67;;;16.20;;
2408;SDS011;8463;48.094;7.970;2022-12-18T15:15:55;24.40;;;15.60;;
2408;SDS011;8463;48.094;7.970;2022-12-18T15:20:41;25.98;;;16.98;;
2408;SDS011;8463;48.094;7.970;2022-12-18T15:23:20;21.27;;;14.77;;
2408;SDS011;8463;48.094;7.970;2022-12-18T15:25:47;23.20;;;15.80;;
2408;SDS011;8463;48.094;7.970;2022-12-18T15:28:21;23.17;;;16.65;;
2408;SDS011;8463;48.094;7.970;2022-12-18T15:33:37;25.05;;;17.40;;
2408;SDS011;8463;48.094;7.970;2022-12-18T15:36:11;19.00;;;13.00;;
2408;SDS011;8463;48.094;7.970;2022-12-18T15:38:38;28.83;;;16.45;;
2408;SDS011;8463;48.094;7.970;2022-12-18T15:41:14;26.57;;;18.90;;
2408;SDS011;8463;48.094;7.970;2022-12-18T15:43:42;28.43;;;17.27;;
2408;SDS011;8463;48.094;7.970;2022-12-18T15:46:12;22.77;;;16.65;;
2408;SDS011;8463;48.094;7.970;2022-12-18T15:48:44;26.55;;;16.85;;
2408;SDS011;8463;48.094;7.970;2022-12-18T15:51:13;30.40;;;18.00;;
2408;SDS011;8463;48.094;7.970;2022-12-18T15:53:42;20.92;;;16.98;;
2408;SDS011;8463;48.094;7.970;2022-12-18T15:56:11;25.30;;;17.98;;
2408;SDS011;8463;48.094;7.970;2022-12-18T15:58:57;23.52;;;15.80;;
2408;SDS011;8463;48.094;7.970;2022-12-18T16:01:24;23.80;;;18.10;;
2408;SDS011;8463;48.094;7.970;2022-12-18T16:03:51;26.37;;;17.63;;
2408;SDS011;8463;48.094;7.970;2022-12-18T16:06:18;26.58;;;18.00;;
2408;SDS011;8463;48.094;7.970;2022-12-18T16:08:44;29.17;;;18.52;;
2408;SDS011;8463;48.094;7.970;2022-12-18T16:11:23;27.17;;;17.37;;
2408;SDS011;8463;48.094;7.970;2022-12-18T16:16:55;28.88;;;18.83;;
2408;SDS011;8463;48.094;7.970;2022-12-18T16:19:22;26.70;;;18.27;;
2408;SDS011;8463;48.094;7.970;2022-12-18T16:21:48;25.52;;;19.50;;
2408;SDS011;8463;48.094;7.970;2022-12-18T16:24:17;30.13;;;19.27;;
2408;SDS011;8463;48.094;7.970;2022-12-18T16:26:46;27.03;;;18.47;;
2408;SDS011;8463;48.094;7.970;2022-12-18T16:29:12;27.27;;;18.45;;
2408;SDS011;8463;48.094;7.970;2022-12-18T16:31:39;17.77;;;11.20;;
2408;SDS011;8463;48.094;7.970;2022-12-18T16:34:24;23.47;;;15.47;;
2408;SDS011;8463;48.094;7.970;2022-12-18T16:37:01;30.93;;;20.03;;
2408;SDS011;8463;48.094;7.970;2022-12-18T16:39:31;30.40;;;20.60;;
2408;SDS011;8463;48.094;7.970;2022-12-18T16:41:59;33.60;;;22.53;;
2408;SDS011;8463;48.094;7.970;2022-12-18T16:44:27;27.27;;;20.77;;
2408;SDS011;8463;48.094;7.970;2022-12-18T16:46:52;32.00;;;22.60;;
2408;SDS011;8463;48.094;7.970;2022-12-18T16:49:18;33.83;;;21.53;;
2408;SDS011;8463;48.094;7.970;2022-12-18T16:51:47;31.10;;;20.42;;
2408;SDS011;8463;48.094;7.970;2022-12-18T16:54:13;49.53;;;23.63;;
2408;SDS011;8463;48.094;7.970;2022-12-18T16:56:39;39.33;;;23.90;;
2408;SDS011;8463;48.094;7.970;2022-12-18T16:59:06;33.43;;;24.27;;
2408;SDS011;8463;48.094;7.970;2022-12-18T17:01:35;35.45;;;21.00;;
2408;SDS011;8463;48.094;7.970;2022-12-18T17:04:01;27.83;;;19.73;;
2408;SDS011;8463;48.094;7.970;2022-12-18T17:06:29;42.30;;;21.67;;
2408;SDS011;8463;48.094;7.970;2022-12-18T17:09:04;30.60;;;19.00;;
2408;SDS011;8463;48.094;7.970;2022-12-18T17:11:32;26.13;;;18.40;;
2408;SDS011;8463;48.094;7.970;2022-12-18T17:14:04;25.63;;;18.43;;
2408;SDS011;8463;48.094;7.970;2022-12-18T17:16:31;31.77;;;20.37;;
2408;SDS011;8463;48.094;7.970;2022-12-18T17:18:57;31.20;;;19.77;;
2408;SDS011;8463;48.094;7.970;2022-12-18T17:21:22;28.33;;;18.93;;
2408;SDS011;8463;48.094;7.970;2022-12-18T17:23:48;22.60;;;18.47;;
2408;SDS011;8463;48.094;7.970;2022-12-18T17:26:14;30.53;;;20.30;;
2408;SDS011;8463;48.094;7.970;2022-12-18T17:28:42;27.53;;;20.60;;
2408;SDS011;8463;48.094;7.970;2022-12-18T17:31:11;29.53;;;23.13;;
2408;SDS011;8463;48.094;7.970;2022-12-18T17:33:38;39.30;;;22.90;;